メインページ
METAR-TAF:

METAR-TAF

空港 :

サンフランシスコ国際空港

サンフランシスコ, カリフォルニア州, アメリカ合衆国

緯度: 37-37-11N, 経度: 122-21-53W, 海抜: 3m

現時点の気象観測

当レポートは1時間0分前の22:56(UTC)に作成
西/北西の風 21kt、最大27ktの突風を伴う
気温 19°C
湿度 64%
気圧 1015 hPa
視程: 16.1km
高度900ftの雲はほとんどない

METAR: KSFO 162256Z 30021G27KT 10SM FEW009 19/12 A2996 RMK AO2 PK WND 30027/2254 SLP146 T01940122

時間: 16:56 (23:56 UTC)

予報

当レポートは36分前の23:20(UTC)に作成
予報は17日の 00時(UTC)から 18日の 06時(UTC)まで有効
西/北西の風 18kt、最大25ktの突風を伴う
視程: 10km
高度1000ftの雲はほとんどない
17日の 0400時(UTC)から
西/北西の風 12kt
視程: 10km
高度1000ftの雲はほとんどない
17日の 0700時(UTC)から
西/北西の風 7kt
視程: 10km
高度1000ftの雲は散在している
17日の 0900時(UTC)から
西/北西の風 5kt
視程: 10km
高度800ftの曇り
17日の 1700時(UTC)から
北西の風 5kt
視程: 10km
高度1200ftの雲は散在している
17日の 2100時(UTC)から
北西の風 13kt
視程: 10km
晴天
18日の 0400時(UTC)から
西/北西の風 8kt
視程: 10km
高度1000ftの雲はほとんどない

TAF: KSFO 162320Z 1700/1806 29018G25KT P6SM FEW010 FM170400 29012KT P6SM FEW010 FM170700 29007KT P6SM SCT010 FM170900 29005KT P6SM OVC008 FM171700 32005KT P6SM SCT012 FM172100 31013KT P6SM SKC FM180400 30008KT P6SM FEW010

4,000以上の空港の気象観測と天気予報(METAR報とTAF報)

利用可能な観測所は地図上に黄色い丸と赤い丸で示す。

丸の上にカーソルを重ねると観測所名を参照できる。

次にクリックすると気象観測と天気予報を参照できる。

マップの切り替え:黒色「×」印の緑ボタンをクリックして拡大、「-」印の緑ボタンをクリックして縮小、緑色の三角印をクリックして隣りの地図に切り替え


METAR-TAF: